createdAt,value
2022-11-15T00:02:40.388Z,10.46
2022-11-15T00:05:28.676Z,10.48
2022-11-15T00:08:16.960Z,10.55
2022-11-15T00:11:05.567Z,10.34
2022-11-15T00:13:52.305Z,10.54
2022-11-15T00:16:39.319Z,10.60
2022-11-15T00:19:25.984Z,10.69
2022-11-15T00:22:14.387Z,10.76
2022-11-15T00:25:01.097Z,10.82
2022-11-15T00:27:48.182Z,10.82
2022-11-15T00:30:35.700Z,10.73
2022-11-15T00:33:22.516Z,10.78
2022-11-15T00:36:11.659Z,10.95
2022-11-15T00:38:59.820Z,10.99
2022-11-15T00:41:46.463Z,11.04
2022-11-15T00:44:33.310Z,11.04
2022-11-15T00:47:20.112Z,10.87
2022-11-15T00:50:09.119Z,11.08
2022-11-15T00:52:58.630Z,11.06
2022-11-15T00:55:46.764Z,11.15
2022-11-15T00:58:34.303Z,11.15
2022-11-15T01:01:21.006Z,11.20
2022-11-15T01:04:07.978Z,11.23
2022-11-15T01:06:55.053Z,11.11
2022-11-15T01:09:41.952Z,11.18
2022-11-15T01:12:30.412Z,11.18
2022-11-15T01:15:17.599Z,11.15
2022-11-15T01:18:04.268Z,11.13
2022-11-15T01:20:51.238Z,11.24
2022-11-15T01:23:39.011Z,11.07
2022-11-15T01:26:26.986Z,10.96
2022-11-15T01:29:14.854Z,10.95
2022-11-15T01:32:01.514Z,11.27
2022-11-15T01:34:48.439Z,11.33
2022-11-15T01:37:35.150Z,11.40
2022-11-15T01:40:22.203Z,11.40
2022-11-15T01:43:24.872Z,11.56
2022-11-15T01:46:31.114Z,11.54
2022-11-15T01:49:22.204Z,11.76
2022-11-15T01:52:15.773Z,11.64
2022-11-15T01:55:10.358Z,11.74
2022-11-15T01:58:01.909Z,11.61
2022-11-15T02:00:50.657Z,11.80
2022-11-15T02:03:45.883Z,11.75
2022-11-15T02:06:33.646Z,11.76
2022-11-15T02:09:20.956Z,11.89
2022-11-15T02:12:10.918Z,11.87
2022-11-15T02:14:58.946Z,11.81
2022-11-15T02:18:02.751Z,12.03
2022-11-15T02:21:14.538Z,12.14
2022-11-15T02:24:51.352Z,12.11
2022-11-15T02:28:01.620Z,12.04
2022-11-15T02:30:57.473Z,12.15
2022-11-15T02:33:55.339Z,12.31
2022-11-15T02:36:51.572Z,12.15
2022-11-15T02:39:46.383Z,12.15
2022-11-15T02:42:56.341Z,12.33
2022-11-15T02:45:53.093Z,12.52
2022-11-15T02:48:41.394Z,12.37
2022-11-15T02:51:28.164Z,12.41
2022-11-15T02:54:22.376Z,12.43
2022-11-15T02:57:16.399Z,12.56
2022-11-15T03:00:11.031Z,12.55
2022-11-15T03:03:15.974Z,12.78
2022-11-15T03:06:16.229Z,12.71
2022-11-15T03:09:12.074Z,12.75
2022-11-15T03:12:09.174Z,12.58
2022-11-15T03:15:01.212Z,12.66
2022-11-15T03:17:57.623Z,12.54
2022-11-15T03:20:48.290Z,12.70
2022-11-15T03:23:36.991Z,12.58
2022-11-15T03:26:27.476Z,12.61
2022-11-15T03:29:20.092Z,12.46
2022-11-15T03:32:13.579Z,12.71
2022-11-15T03:35:04.190Z,12.78
2022-11-15T03:37:59.162Z,12.72
2022-11-15T03:41:01.863Z,12.77
2022-11-15T03:43:55.052Z,12.73
2022-11-15T03:46:48.925Z,12.78
2022-11-15T03:49:38.633Z,12.92
2022-11-15T03:52:25.510Z,12.64
2022-11-15T03:55:18.850Z,12.78
2022-11-15T03:58:05.720Z,12.90
2022-11-15T04:00:52.416Z,13.03
2022-11-15T04:03:39.400Z,13.04
2022-11-15T04:06:26.229Z,12.96
2022-11-15T04:09:13.255Z,13.05
2022-11-15T04:12:01.363Z,13.14
2022-11-15T04:15:07.984Z,13.05
2022-11-15T04:17:57.671Z,12.90
2022-11-15T04:21:01.989Z,13.14
2022-11-15T04:24:06.439Z,13.08
2022-11-15T04:26:53.072Z,13.01
2022-11-15T04:29:41.265Z,12.85
2022-11-15T04:32:27.937Z,12.63
2022-11-15T04:35:15.100Z,12.71
2022-11-15T04:38:03.077Z,12.71
2022-11-15T04:40:50.053Z,12.71
2022-11-15T04:43:37.015Z,12.60
2022-11-15T04:46:26.512Z,12.52
2022-11-15T04:49:13.620Z,12.64
2022-11-15T04:52:00.621Z,12.64
2022-11-15T04:54:47.652Z,12.77
2022-11-15T04:57:34.551Z,12.65
2022-11-15T05:00:21.759Z,12.67
2022-11-15T05:03:29.667Z,12.67
2022-11-15T05:06:16.615Z,12.75
2022-11-15T05:09:03.512Z,12.66
2022-11-15T05:11:50.567Z,12.75
2022-11-15T05:14:37.263Z,12.69
2022-11-15T05:17:24.066Z,12.65
2022-11-15T05:20:13.743Z,12.66
2022-11-15T05:23:00.395Z,12.73
2022-11-15T05:25:47.347Z,12.75
2022-11-15T05:28:35.391Z,12.78
2022-11-15T05:31:22.213Z,12.95
2022-11-15T05:34:09.629Z,12.89
2022-11-15T05:36:57.992Z,12.83
2022-11-15T05:39:44.588Z,12.95
2022-11-15T05:42:32.335Z,12.92
2022-11-15T05:45:26.331Z,12.95
2022-11-15T05:48:14.446Z,12.76
2022-11-15T05:51:02.028Z,12.84
2022-11-15T05:53:51.729Z,12.74
2022-11-15T05:56:38.556Z,12.92
2022-11-15T05:59:25.956Z,12.99
2022-11-15T06:02:13.542Z,12.91
2022-11-15T06:05:00.482Z,13.10
2022-11-15T06:07:47.506Z,13.11
2022-11-15T06:10:36.660Z,13.17
2022-11-15T06:13:23.686Z,13.10
2022-11-15T06:16:10.628Z,13.17
2022-11-15T06:18:57.900Z,13.11
2022-11-15T06:21:44.795Z,13.01
2022-11-15T06:24:31.685Z,12.92
2022-11-15T06:27:20.076Z,13.00
2022-11-15T06:30:08.271Z,13.08
2022-11-15T06:33:03.611Z,12.89
2022-11-15T06:35:50.705Z,13.10
2022-11-15T06:38:38.240Z,12.83
2022-11-15T06:41:25.429Z,13.04
2022-11-15T06:44:13.818Z,13.04
2022-11-15T06:47:00.419Z,12.95
2022-11-15T06:49:47.442Z,12.95
2022-11-15T06:52:34.872Z,12.75
2022-11-15T06:55:21.781Z,12.65
2022-11-15T06:58:08.756Z,12.60
2022-11-15T07:01:00.901Z,12.70
2022-11-15T07:03:47.883Z,12.60
2022-11-15T07:06:34.779Z,12.67
2022-11-15T07:09:21.818Z,12.63
2022-11-15T07:12:09.073Z,12.56
2022-11-15T07:14:56.272Z,12.63
2022-11-15T07:17:44.321Z,12.76
2022-11-15T07:20:31.089Z,12.78
2022-11-15T07:23:18.118Z,12.73
2022-11-15T07:26:05.313Z,12.78
2022-11-15T07:28:52.669Z,12.83
2022-11-15T07:31:39.934Z,12.92
2022-11-15T07:34:28.228Z,12.83
2022-11-15T07:37:15.043Z,12.95
2022-11-15T07:40:01.865Z,12.89
2022-11-15T07:42:54.899Z,12.83
2022-11-15T07:45:44.376Z,12.92
2022-11-15T07:48:42.782Z,12.81
2022-11-15T07:51:32.019Z,12.49
2022-11-15T07:54:19.070Z,12.81
2022-11-15T07:57:07.776Z,12.79
2022-11-15T07:59:54.968Z,12.61
2022-11-15T08:02:42.252Z,12.58
2022-11-15T08:05:29.459Z,12.45
2022-11-15T08:08:17.805Z,12.35
2022-11-15T08:11:06.116Z,12.39
2022-11-15T08:13:52.795Z,12.53
2022-11-15T08:16:39.767Z,12.66
2022-11-15T08:19:26.892Z,12.74
2022-11-15T08:22:13.562Z,12.70
2022-11-15T08:25:01.846Z,12.75
2022-11-15T08:27:48.779Z,12.75
2022-11-15T08:30:39.580Z,12.69
2022-11-15T08:33:26.820Z,12.77
2022-11-15T08:36:16.773Z,12.77
2022-11-15T08:39:03.528Z,12.79
2022-11-15T08:41:52.095Z,12.74
2022-11-15T08:44:39.371Z,12.58
2022-11-15T08:47:26.535Z,12.35
2022-11-15T08:50:13.609Z,12.67
2022-11-15T08:53:06.405Z,12.50
2022-11-15T08:55:53.044Z,12.29
2022-11-15T08:58:42.004Z,12.11
2022-11-15T09:01:28.874Z,12.24
2022-11-15T09:04:15.838Z,12.39
2022-11-15T09:07:02.773Z,12.25
2022-11-15T09:09:49.639Z,12.24
2022-11-15T09:12:36.550Z,12.49
2022-11-15T09:15:24.643Z,12.65
2022-11-15T09:18:11.256Z,12.60
2022-11-15T09:20:59.315Z,12.64
2022-11-15T09:23:46.034Z,12.56
2022-11-15T09:26:32.949Z,12.79
2022-11-15T09:29:20.535Z,12.84
2022-11-15T09:32:08.969Z,12.68
2022-11-15T09:34:56.304Z,12.84
2022-11-15T09:37:43.355Z,12.99
2022-11-15T09:40:32.264Z,12.73
2022-11-15T09:43:34.487Z,13.11
2022-11-15T09:46:33.410Z,13.12
2022-11-15T09:49:33.354Z,12.99
2022-11-15T09:52:28.069Z,12.94
2022-11-15T09:54:56.712Z,13.24
2022-11-15T09:57:34.654Z,13.38
2022-11-15T10:00:45.505Z,13.54
2022-11-15T10:03:16.215Z,13.71
2022-11-15T10:05:49.343Z,13.66
2022-11-15T10:08:37.885Z,13.51
2022-11-15T10:11:36.157Z,13.64
2022-11-15T10:14:04.161Z,13.53
2022-11-15T10:17:04.472Z,13.83
2022-11-15T10:19:41.729Z,13.97
2022-11-15T10:22:27.727Z,13.97
2022-11-15T10:25:14.641Z,14.27
2022-11-15T10:27:44.186Z,14.22
2022-11-15T10:30:16.803Z,14.06
2022-11-15T10:32:48.316Z,14.12
2022-11-15T10:35:26.653Z,14.06
2022-11-15T10:38:08.472Z,14.43
2022-11-15T10:40:38.394Z,14.54
2022-11-15T10:43:17.525Z,14.49
2022-11-15T10:45:47.285Z,14.35
2022-11-15T10:48:28.432Z,14.52
2022-11-15T10:50:58.087Z,14.75
2022-11-15T10:53:35.091Z,14.81
2022-11-15T10:56:09.125Z,14.81
2022-11-15T10:58:43.744Z,14.76
2022-11-15T11:01:17.017Z,14.98
2022-11-15T11:03:47.829Z,14.91
2022-11-15T11:06:19.161Z,15.10
2022-11-15T11:09:00.283Z,15.09
2022-11-15T11:11:48.052Z,15.37
2022-11-15T11:14:24.063Z,15.50
2022-11-15T11:16:57.468Z,15.68
2022-11-15T11:20:02.692Z,15.56
2022-11-15T11:22:41.756Z,15.40
2022-11-15T11:25:30.450Z,15.39
2022-11-15T11:28:24.384Z,15.69
2022-11-15T11:31:08.996Z,15.99
2022-11-15T11:33:46.974Z,15.74
2022-11-15T11:36:26.885Z,15.79
2022-11-15T11:39:12.898Z,15.93
2022-11-15T11:42:05.944Z,16.18
2022-11-15T11:44:52.634Z,15.73
2022-11-15T11:47:25.855Z,16.05
2022-11-15T11:49:59.228Z,16.16
2022-11-15T11:52:33.466Z,16.31
2022-11-15T11:55:14.794Z,16.28
2022-11-15T11:57:50.158Z,16.24
2022-11-15T12:00:23.021Z,16.57
2022-11-15T12:03:10.160Z,16.78
2022-11-15T12:05:43.951Z,16.71
2022-11-15T12:08:33.228Z,16.88
2022-11-15T12:11:11.803Z,16.73
2022-11-15T12:13:44.537Z,16.87
2022-11-15T12:16:18.847Z,16.57
2022-11-15T12:18:51.153Z,16.43
2022-11-15T12:21:28.862Z,16.52
2022-11-15T12:24:05.168Z,16.64
2022-11-15T12:26:39.482Z,16.45
2022-11-15T12:29:21.560Z,16.30
2022-11-15T12:31:56.636Z,16.35
2022-11-15T12:34:47.405Z,16.31
2022-11-15T12:37:36.154Z,16.05
2022-11-15T12:40:27.139Z,15.92
2022-11-15T12:43:40.786Z,15.98
2022-11-15T12:46:21.520Z,15.89
2022-11-15T12:48:57.604Z,15.69
2022-11-15T12:52:11.635Z,15.88
2022-11-15T12:55:00.678Z,15.80
2022-11-15T12:57:37.399Z,15.92
2022-11-15T13:00:48.138Z,15.86
2022-11-15T13:03:30.987Z,15.74
2022-11-15T13:06:32.482Z,15.81
2022-11-15T13:09:00.758Z,15.77
2022-11-15T13:11:55.748Z,15.75
2022-11-15T13:14:49.202Z,15.78
2022-11-15T13:17:35.879Z,15.69
2022-11-15T13:20:34.149Z,15.80
2022-11-15T13:23:11.417Z,15.86
2022-11-15T13:26:17.738Z,15.69
2022-11-15T13:28:50.474Z,15.73
2022-11-15T13:31:37.679Z,15.88
2022-11-15T13:34:50.596Z,15.86
2022-11-15T13:37:33.454Z,15.79
2022-11-15T13:40:23.100Z,15.85
2022-11-15T13:42:51.650Z,15.84
2022-11-15T13:45:21.756Z,15.69
2022-11-15T13:48:00.921Z,15.66
2022-11-15T13:50:35.908Z,15.89
2022-11-15T13:53:07.285Z,15.78
2022-11-15T13:55:35.944Z,15.84
2022-11-15T13:58:07.788Z,15.58
2022-11-15T14:00:41.180Z,15.56
2022-11-15T14:03:19.805Z,15.69
2022-11-15T14:06:07.467Z,15.75
2022-11-15T14:08:37.698Z,15.49
2022-11-15T14:11:18.826Z,15.34
2022-11-15T14:14:14.595Z,15.35
2022-11-15T14:16:45.064Z,15.45
2022-11-15T14:19:35.119Z,15.42
2022-11-15T14:22:23.151Z,15.37
2022-11-15T14:27:46.754Z,15.36
2022-11-15T14:30:19.384Z,15.30
2022-11-15T14:32:50.352Z,15.43
2022-11-15T14:35:21.355Z,15.28
2022-11-15T14:37:49.777Z,15.26
2022-11-15T14:40:20.970Z,15.24
2022-11-15T14:42:51.937Z,15.45
2022-11-15T14:45:23.893Z,15.30
2022-11-15T14:47:52.208Z,15.42
2022-11-15T14:50:23.124Z,15.40
2022-11-15T14:52:51.808Z,15.44
2022-11-15T14:55:24.255Z,15.33
2022-11-15T14:57:54.422Z,15.34
2022-11-15T15:00:23.968Z,15.28
2022-11-15T15:02:55.983Z,15.10
2022-11-15T15:05:28.132Z,15.10
2022-11-15T15:07:56.526Z,15.14
2022-11-15T15:10:41.016Z,15.01
2022-11-15T15:13:20.387Z,15.20
2022-11-15T15:15:50.001Z,15.11
2022-11-15T15:18:19.240Z,15.17
2022-11-15T15:21:03.857Z,15.04
2022-11-15T15:23:32.212Z,15.05
2022-11-15T15:26:00.654Z,14.99
2022-11-15T15:28:34.514Z,14.90
2022-11-15T15:31:03.295Z,14.85
2022-11-15T15:33:31.667Z,14.89
2022-11-15T15:36:00.137Z,14.94
2022-11-15T15:38:28.789Z,14.81
2022-11-15T15:40:57.546Z,14.88
2022-11-15T15:43:25.800Z,14.84
2022-11-15T15:45:55.511Z,14.82
2022-11-15T15:48:23.753Z,14.73
2022-11-15T15:50:52.187Z,14.67
2022-11-15T15:53:20.441Z,14.45
2022-11-15T15:55:48.723Z,14.55
2022-11-15T15:58:17.098Z,14.46
2022-11-15T16:00:45.357Z,14.35
2022-11-15T16:03:15.025Z,14.19
2022-11-15T16:05:43.330Z,14.03
2022-11-15T16:08:20.046Z,14.05
2022-11-15T16:10:49.613Z,14.04
2022-11-15T16:13:18.542Z,14.02
2022-11-15T16:15:49.584Z,14.05
2022-11-15T16:18:20.212Z,13.80
2022-11-15T16:20:52.990Z,13.81
2022-11-15T16:23:24.588Z,13.81
2022-11-15T16:25:56.515Z,13.78
2022-11-15T16:28:27.157Z,13.84
2022-11-15T16:31:03.903Z,13.64
2022-11-15T16:33:34.386Z,13.73
2022-11-15T16:36:03.258Z,13.39
2022-11-15T16:38:32.443Z,13.69
2022-11-15T16:41:01.005Z,13.69
2022-11-15T16:43:29.288Z,13.70
2022-11-15T16:45:57.608Z,13.69
2022-11-15T16:48:28.270Z,13.69
2022-11-15T16:51:00.061Z,13.60
2022-11-15T16:53:29.254Z,13.41
2022-11-15T16:55:58.141Z,13.47
2022-11-15T16:58:26.781Z,13.46
2022-11-15T17:00:57.648Z,13.49
2022-11-15T17:03:26.525Z,13.43
2022-11-15T17:05:59.282Z,13.47
2022-11-15T17:08:28.976Z,13.36
2022-11-15T17:10:57.708Z,13.22
2022-11-15T17:13:26.075Z,13.35
2022-11-15T17:16:08.910Z,13.41
2022-11-15T17:18:38.240Z,13.37
2022-11-15T17:21:09.448Z,13.29
2022-11-15T17:23:39.315Z,13.34
2022-11-15T17:26:28.161Z,13.29
2022-11-15T17:28:57.868Z,13.22
2022-11-15T17:31:27.031Z,13.09
2022-11-15T17:33:55.485Z,13.21
2022-11-15T17:36:24.110Z,13.03
2022-11-15T17:38:59.099Z,13.14
2022-11-15T17:41:28.140Z,13.15
2022-11-15T17:43:59.208Z,13.23
2022-11-15T17:46:29.408Z,13.10
2022-11-15T17:48:59.164Z,13.22
2022-11-15T17:51:27.812Z,13.16
2022-11-15T17:53:58.031Z,13.12
2022-11-15T17:56:28.696Z,12.99
2022-11-15T17:59:00.103Z,13.05
2022-11-15T18:01:31.067Z,13.10
2022-11-15T18:04:02.073Z,13.07
2022-11-15T18:06:34.267Z,13.02
2022-11-15T18:09:07.570Z,13.15
2022-11-15T18:11:39.238Z,13.17
2022-11-15T18:14:10.342Z,13.08
2022-11-15T18:16:40.230Z,13.09
2022-11-15T18:19:13.289Z,13.07
2022-11-15T18:21:57.123Z,13.28
2022-11-15T18:24:29.231Z,13.22
2022-11-15T18:26:58.762Z,13.03
2022-11-15T18:29:27.326Z,13.40
2022-11-15T18:31:56.387Z,13.41
2022-11-15T18:34:27.048Z,13.49
2022-11-15T18:36:55.805Z,13.37
2022-11-15T18:39:24.066Z,13.43
2022-11-15T18:41:53.879Z,13.26
2022-11-15T18:44:22.298Z,13.34
2022-11-15T18:46:51.393Z,13.49
2022-11-15T18:49:20.717Z,13.49
2022-11-15T18:51:50.006Z,13.44
2022-11-15T18:54:19.603Z,13.28
2022-11-15T18:56:48.052Z,13.45
2022-11-15T18:59:17.917Z,13.45
2022-11-15T19:01:48.305Z,13.32
2022-11-15T19:04:19.503Z,13.37
2022-11-15T19:06:51.051Z,13.45
2022-11-15T19:09:20.837Z,13.36
2022-11-15T19:11:52.319Z,13.27
2022-11-15T19:14:24.237Z,13.57
2022-11-15T19:16:55.148Z,13.70
2022-11-15T19:19:25.884Z,13.61
2022-11-15T19:21:54.951Z,13.41
2022-11-15T19:24:23.268Z,13.46
2022-11-15T19:26:51.632Z,13.43
2022-11-15T19:29:21.373Z,13.53
2022-11-15T19:31:49.870Z,13.65
2022-11-15T19:34:18.954Z,13.70
2022-11-15T19:36:47.416Z,13.46
2022-11-15T19:39:18.720Z,13.53
2022-11-15T19:41:47.779Z,13.67
2022-11-15T19:44:16.290Z,13.74
2022-11-15T19:46:46.074Z,13.57
2022-11-15T19:49:14.698Z,13.44
2022-11-15T19:51:45.211Z,13.51
2022-11-15T19:54:13.668Z,13.53
2022-11-15T19:56:42.131Z,13.73
2022-11-15T19:59:11.838Z,13.73
2022-11-15T20:01:40.325Z,13.90
2022-11-15T20:04:10.898Z,13.94
2022-11-15T20:06:42.248Z,13.89
2022-11-15T20:09:14.454Z,14.08
2022-11-15T20:11:44.060Z,14.07
2022-11-15T20:14:13.527Z,13.83
2022-11-15T20:16:42.565Z,14.03
2022-11-15T20:19:15.876Z,13.92
2022-11-15T20:21:44.801Z,13.89
2022-11-15T20:24:13.525Z,13.81
2022-11-15T20:26:42.863Z,13.67
2022-11-15T20:29:11.805Z,13.65
2022-11-15T20:31:40.231Z,13.78
2022-11-15T20:34:08.878Z,13.89
2022-11-15T20:36:38.511Z,14.02
2022-11-15T20:39:06.841Z,14.08
2022-11-15T20:41:35.131Z,14.10
2022-11-15T20:44:03.962Z,14.08
2022-11-15T20:46:32.238Z,14.07
2022-11-15T20:49:00.732Z,13.99
2022-11-15T20:51:29.065Z,14.01
2022-11-15T20:53:58.938Z,14.09
2022-11-15T20:56:27.242Z,14.15
2022-11-15T20:58:56.576Z,14.18
2022-11-15T21:01:25.547Z,14.18
2022-11-15T21:03:55.192Z,14.20
2022-11-15T21:06:24.627Z,14.05
2022-11-15T21:09:11.959Z,14.16
2022-11-15T21:11:59.602Z,14.14
2022-11-15T21:14:28.023Z,14.15
2022-11-15T21:16:56.490Z,14.15
2022-11-15T21:19:28.979Z,14.12
2022-11-15T21:22:01.398Z,14.17
2022-11-15T21:24:30.049Z,14.20
2022-11-15T21:26:59.878Z,14.16
2022-11-15T21:29:28.661Z,14.15
2022-11-15T21:31:57.056Z,14.16
2022-11-15T21:34:25.294Z,14.18
2022-11-15T21:36:53.676Z,14.16
2022-11-15T21:39:21.997Z,14.21
2022-11-15T21:41:50.331Z,14.08
2022-11-15T21:44:19.984Z,14.22
2022-11-15T21:46:48.462Z,14.23
2022-11-15T21:49:19.126Z,14.28
2022-11-15T21:51:47.560Z,14.26
2022-11-15T21:54:15.934Z,14.18
2022-11-15T21:56:45.454Z,14.12
2022-11-15T21:59:13.916Z,14.23
2022-11-15T22:02:01.397Z,14.17
2022-11-15T22:04:29.740Z,14.15
2022-11-15T22:06:58.218Z,14.24
2022-11-15T22:09:26.899Z,14.21
2022-11-15T22:11:55.364Z,14.32
2022-11-15T22:14:24.138Z,14.38
2022-11-15T22:16:53.797Z,14.38
2022-11-15T22:19:22.611Z,14.45
2022-11-15T22:21:50.915Z,14.35
2022-11-15T22:24:19.259Z,14.45
2022-11-15T22:26:47.500Z,14.34
2022-11-15T22:29:15.692Z,14.46
2022-11-15T22:31:43.943Z,14.49
2022-11-15T22:34:15.863Z,14.45
2022-11-15T22:37:13.305Z,14.44
2022-11-15T22:39:34.059Z,14.49
2022-11-15T22:42:02.324Z,14.48
2022-11-15T22:44:30.647Z,14.41
2022-11-15T22:46:59.126Z,14.48
2022-11-15T22:49:28.826Z,14.46
2022-11-15T22:51:57.034Z,14.47
2022-11-15T22:54:25.327Z,14.25
2022-11-15T22:56:53.566Z,14.33
2022-11-15T22:59:21.821Z,14.11
2022-11-15T23:01:51.031Z,14.24
2022-11-15T23:04:19.305Z,14.26
2022-11-15T23:06:49.185Z,14.18
2022-11-15T23:09:17.451Z,14.08
2022-11-15T23:12:03.424Z,14.12
2022-11-15T23:14:31.720Z,14.23
2022-11-15T23:17:00.254Z,14.30
2022-11-15T23:19:28.522Z,14.26
2022-11-15T23:22:15.827Z,14.30
2022-11-15T23:24:44.233Z,14.19
2022-11-15T23:27:15.224Z,14.35
2022-11-15T23:30:00.987Z,14.41
2022-11-15T23:32:46.772Z,14.48
2022-11-15T23:35:15.373Z,14.47
2022-11-15T23:37:44.991Z,14.50
2022-11-15T23:40:13.974Z,14.42
2022-11-15T23:42:42.246Z,14.45
2022-11-15T23:45:11.120Z,14.45
2022-11-15T23:47:39.356Z,14.46
2022-11-15T23:50:09.117Z,14.39
2022-11-15T23:52:37.403Z,14.38
2022-11-15T23:55:08.282Z,14.25
2022-11-15T23:57:36.553Z,14.31
